createdAt,value
2018-03-10T00:00:02.951Z,7.75
2018-03-10T00:00:06.851Z,7.74
2018-03-10T00:00:11.075Z,7.74
2018-03-10T00:00:15.219Z,7.74
2018-03-10T00:00:19.336Z,7.73
2018-03-10T00:00:23.568Z,7.73
2018-03-10T00:00:27.575Z,7.73
2018-03-10T00:00:31.583Z,7.73
2018-03-10T00:00:35.595Z,7.73
2018-03-10T00:00:39.611Z,7.73
2018-03-10T00:00:43.615Z,7.73
2018-03-10T00:00:47.737Z,7.72
2018-03-10T00:00:51.848Z,7.72
2018-03-10T00:00:56.184Z,7.73
2018-03-10T00:01:00.087Z,7.73
2018-03-10T00:01:04.093Z,7.71
2018-03-10T00:01:08.312Z,7.72
2018-03-10T00:01:12.318Z,7.71
2018-03-10T00:01:16.543Z,7.71
2018-03-10T00:01:20.876Z,7.71
2018-03-10T00:01:24.989Z,7.7
2018-03-10T00:01:29.328Z,7.69
2018-03-10T00:01:33.342Z,7.71
2018-03-10T00:01:37.472Z,7.7
2018-03-10T00:01:41.691Z,7.7
2018-03-10T00:01:45.908Z,7.69
2018-03-10T00:01:49.915Z,7.7
2018-03-10T00:01:54.245Z,7.7
2018-03-10T00:01:58.353Z,7.69
2018-03-10T00:02:02.780Z,7.69
2018-03-10T00:02:06.889Z,7.69
2018-03-10T00:02:11.006Z,7.68
2018-03-10T00:02:15.022Z,7.68
2018-03-10T00:02:19.243Z,7.68
2018-03-10T00:02:23.354Z,7.68
2018-03-10T00:02:27.575Z,7.67
2018-03-10T00:02:31.696Z,7.67
2018-03-10T00:02:35.804Z,7.67
2018-03-10T00:02:39.921Z,7.67
2018-03-10T00:02:44.151Z,7.66
2018-03-10T00:02:48.266Z,7.66
2018-03-10T00:02:52.597Z,7.67
2018-03-10T00:02:56.501Z,7.67
2018-03-10T00:03:00.721Z,7.66
2018-03-10T00:03:04.626Z,7.66
2018-03-10T00:03:08.860Z,7.66
2018-03-10T00:03:13.084Z,7.66
2018-03-10T00:03:17.352Z,7.65
2018-03-10T00:03:21.688Z,7.65
2018-03-10T00:03:25.792Z,7.65
2018-03-10T00:03:30.004Z,7.65
2018-03-10T00:03:34.013Z,7.65
2018-03-10T00:03:38.130Z,7.64
2018-03-10T00:03:42.359Z,7.64
2018-03-10T00:03:46.370Z,7.65
2018-03-10T00:03:50.490Z,7.64
2018-03-10T00:03:54.500Z,7.64
2018-03-10T00:03:58.719Z,7.64
2018-03-10T00:04:02.960Z,7.63
2018-03-10T00:04:07.193Z,7.63
2018-03-10T00:04:11.194Z,7.63
2018-03-10T00:04:15.521Z,7.63
2018-03-10T00:04:19.538Z,7.63
2018-03-10T00:04:23.650Z,7.62
2018-03-10T00:04:27.662Z,7.62
2018-03-10T00:04:31.784Z,7.62
2018-03-10T00:04:35.905Z,7.62
2018-03-10T00:04:40.130Z,7.61
2018-03-10T00:04:44.467Z,7.62
2018-03-10T00:04:48.844Z,7.61
2018-03-10T00:04:53.068Z,7.61
2018-03-10T00:04:57.321Z,7.6
2018-03-10T00:05:01.694Z,7.6
2018-03-10T00:05:06.032Z,7.61
2018-03-10T00:05:10.500Z,7.6
2018-03-10T00:05:14.559Z,7.6
2018-03-10T00:05:18.672Z,7.6
2018-03-10T00:05:22.792Z,7.59
2018-03-10T00:05:27.186Z,7.59
2018-03-10T00:05:31.517Z,7.6
2018-03-10T00:05:35.419Z,7.58
2018-03-10T00:05:39.648Z,7.58
2018-03-10T00:05:43.782Z,7.58
2018-03-10T00:05:47.900Z,7.59
2018-03-10T00:05:51.905Z,7.59
2018-03-10T00:05:55.922Z,7.58
2018-03-10T00:05:59.822Z,7.58
2018-03-10T00:06:04.196Z,7.58
2018-03-10T00:06:08.318Z,7.58
2018-03-10T00:06:12.436Z,7.57
2018-03-10T00:06:16.444Z,7.58
2018-03-10T00:06:20.560Z,7.57
2018-03-10T00:06:24.786Z,7.57
2018-03-10T00:06:29.011Z,7.57
2018-03-10T00:06:33.232Z,7.57
2018-03-10T00:06:37.132Z,7.56
2018-03-10T00:06:41.462Z,7.56
2018-03-10T00:06:45.573Z,7.57
2018-03-10T00:06:49.582Z,7.56
2018-03-10T00:06:53.692Z,7.56
2018-03-10T00:06:57.811Z,7.57
2018-03-10T00:07:02.037Z,7.56
2018-03-10T00:07:06.055Z,7.55
2018-03-10T00:07:10.398Z,7.56
2018-03-10T00:07:14.620Z,7.56
2018-03-10T00:07:18.838Z,7.56
2018-03-10T00:07:22.962Z,7.55
2018-03-10T00:07:27.183Z,7.55
2018-03-10T00:07:31.188Z,7.55
2018-03-10T00:07:35.307Z,7.55
2018-03-10T00:07:39.420Z,7.55
2018-03-10T00:07:43.635Z,7.54
2018-03-10T00:07:47.643Z,7.54
2018-03-10T00:07:51.646Z,7.54
2018-03-10T00:07:55.881Z,7.54
2018-03-10T00:07:59.889Z,7.54
2018-03-10T00:08:04.008Z,7.54
2018-03-10T00:08:08.357Z,7.54
2018-03-10T00:08:12.689Z,7.53
2018-03-10T00:08:16.921Z,7.54
2018-03-10T00:08:21.035Z,7.54
2018-03-10T00:08:25.362Z,7.54
2018-03-10T00:08:29.701Z,7.53
2018-03-10T00:08:34.033Z,7.53
2018-03-10T00:08:38.270Z,7.53
2018-03-10T00:08:42.502Z,7.52
2018-03-10T00:08:46.734Z,7.53
2018-03-10T00:08:51.061Z,7.52
2018-03-10T00:08:55.325Z,7.53
2018-03-10T00:08:59.550Z,7.52
2018-03-10T00:09:03.872Z,7.52
2018-03-10T00:09:08.087Z,7.51
2018-03-10T00:09:12.306Z,7.52
2018-03-10T00:09:16.530Z,7.52
2018-03-10T00:09:20.748Z,7.52
2018-03-10T00:09:24.654Z,7.51
2018-03-10T00:09:28.668Z,7.51
2018-03-10T00:09:32.680Z,7.51
2018-03-10T00:09:36.690Z,7.51
2018-03-10T00:09:40.805Z,7.52
2018-03-10T00:09:44.815Z,7.51
2018-03-10T00:09:48.826Z,7.51
2018-03-10T00:09:53.044Z,7.51
2018-03-10T00:09:57.266Z,7.51
2018-03-10T00:10:01.493Z,7.51
2018-03-10T00:10:05.821Z,7.51
2018-03-10T00:10:09.936Z,7.51
2018-03-10T00:10:13.841Z,7.51
2018-03-10T00:10:17.851Z,7.5
2018-03-10T00:10:21.856Z,7.5
2018-03-10T00:10:26.083Z,7.5
2018-03-10T00:10:30.094Z,7.51
2018-03-10T00:10:34.099Z,7.5
2018-03-10T00:10:38.436Z,7.49
2018-03-10T00:10:42.450Z,7.5
2018-03-10T00:10:46.674Z,7.5
2018-03-10T00:10:50.906Z,7.5
2018-03-10T00:10:54.810Z,7.49
2018-03-10T00:10:58.931Z,7.5
2018-03-10T00:11:02.833Z,7.5
2018-03-10T00:11:07.054Z,7.51
2018-03-10T00:11:11.182Z,7.5
2018-03-10T00:11:15.409Z,7.51
2018-03-10T00:11:19.751Z,7.5
2018-03-10T00:11:23.982Z,7.5
2018-03-10T00:11:28.096Z,7.51
2018-03-10T00:11:32.425Z,7.5
2018-03-10T00:11:36.540Z,7.5
2018-03-10T00:11:40.549Z,7.5
2018-03-10T00:11:44.667Z,7.51
2018-03-10T00:11:48.669Z,7.5
2018-03-10T00:11:52.888Z,7.5
2018-03-10T00:11:57.123Z,7.5
2018-03-10T00:12:01.236Z,7.5
2018-03-10T00:12:05.460Z,7.5
2018-03-10T00:12:09.465Z,7.51
2018-03-10T00:12:13.698Z,7.49
2018-03-10T00:12:17.598Z,7.51
2018-03-10T00:12:21.921Z,7.5
2018-03-10T00:12:25.819Z,7.51
2018-03-10T00:12:30.039Z,7.5
2018-03-10T00:12:34.152Z,7.5
2018-03-10T00:12:38.492Z,7.5
2018-03-10T00:12:42.496Z,7.5
2018-03-10T00:12:46.612Z,7.5
2018-03-10T00:12:50.727Z,7.49
2018-03-10T00:12:54.842Z,7.5
2018-03-10T00:12:59.073Z,7.5
2018-03-10T00:13:03.294Z,7.49
2018-03-10T00:13:07.515Z,7.5
2018-03-10T00:13:11.848Z,7.49
2018-03-10T00:13:15.963Z,7.5
2018-03-10T00:13:20.080Z,7.5
2018-03-10T00:13:24.196Z,7.49
2018-03-10T00:13:28.429Z,7.49
2018-03-10T00:13:32.546Z,7.49
2018-03-10T00:13:36.768Z,7.49
2018-03-10T00:13:40.996Z,7.49
2018-03-10T00:13:45.224Z,7.49
2018-03-10T00:13:49.232Z,7.48
2018-03-10T00:13:53.452Z,7.49
2018-03-10T00:13:57.486Z,7.48
2018-03-10T00:14:01.951Z,7.49
2018-03-10T00:14:06.171Z,7.48
2018-03-10T00:14:10.284Z,7.49
2018-03-10T00:14:14.621Z,7.48
2018-03-10T00:14:18.848Z,7.49
2018-03-10T00:14:22.962Z,7.47
2018-03-10T00:14:26.971Z,7.48
2018-03-10T00:14:30.978Z,7.48
2018-03-10T00:14:35.004Z,7.48
2018-03-10T00:14:39.369Z,7.48
2018-03-10T00:14:43.605Z,7.47
2018-03-10T00:14:47.921Z,7.48
2018-03-10T00:14:52.141Z,7.48
2018-03-10T00:14:56.258Z,7.48
2018-03-10T00:15:00.483Z,7.48
2018-03-10T00:15:04.820Z,7.48
2018-03-10T00:15:09.047Z,7.48
2018-03-10T00:15:13.175Z,7.48
2018-03-10T00:15:17.405Z,7.49
2018-03-10T00:15:21.730Z,7.48
2018-03-10T00:15:25.847Z,7.49
2018-03-10T00:15:30.072Z,7.48
2018-03-10T00:15:34.106Z,7.48
2018-03-10T00:15:38.329Z,7.49
2018-03-10T00:15:42.450Z,7.47
2018-03-10T00:15:46.349Z,7.48
2018-03-10T00:15:50.731Z,7.48
2018-03-10T00:15:54.844Z,7.49
2018-03-10T00:15:58.857Z,7.48
2018-03-10T00:16:03.255Z,7.48
2018-03-10T00:16:07.401Z,7.49
2018-03-10T00:16:11.626Z,7.49
2018-03-10T00:16:15.961Z,7.48
2018-03-10T00:16:20.287Z,7.48
2018-03-10T00:16:24.515Z,7.48
2018-03-10T00:16:28.863Z,7.48
2018-03-10T00:16:32.864Z,7.47
2018-03-10T00:16:37.093Z,7.49
2018-03-10T00:16:41.207Z,7.49
2018-03-10T00:16:45.317Z,7.48
2018-03-10T00:16:49.325Z,7.47
2018-03-10T00:16:53.543Z,7.48
2018-03-10T00:16:57.550Z,7.47
2018-03-10T00:17:01.891Z,7.47
2018-03-10T00:17:06.075Z,7.48
2018-03-10T00:17:10.308Z,7.48
2018-03-10T00:17:14.532Z,7.48
2018-03-10T00:17:18.783Z,7.48
2018-03-10T00:17:22.900Z,7.47
2018-03-10T00:17:27.228Z,7.47
2018-03-10T00:17:31.236Z,7.47
2018-03-10T00:17:35.560Z,7.48
2018-03-10T00:17:39.566Z,7.48
2018-03-10T00:17:43.783Z,7.48
2018-03-10T00:17:47.790Z,7.47
2018-03-10T00:17:51.911Z,7.47
2018-03-10T00:17:56.150Z,7.48
2018-03-10T00:18:00.162Z,7.47
2018-03-10T00:18:04.286Z,7.48
2018-03-10T00:18:08.510Z,7.47
2018-03-10T00:18:12.736Z,7.47
2018-03-10T00:18:16.628Z,7.47
2018-03-10T00:18:20.741Z,7.48
2018-03-10T00:18:24.856Z,7.48
2018-03-10T00:18:28.867Z,7.49
2018-03-10T00:18:33.197Z,7.48
2018-03-10T00:18:37.002Z,7.48
2018-03-10T00:18:41.227Z,7.48
2018-03-10T00:18:45.338Z,7.48
2018-03-10T00:18:49.561Z,7.48
2018-03-10T00:18:53.894Z,7.48
2018-03-10T00:18:58.118Z,7.47
2018-03-10T00:19:01.921Z,7.48
2018-03-10T00:19:06.072Z,7.47
2018-03-10T00:19:10.294Z,7.47
2018-03-10T00:19:14.516Z,7.47
2018-03-10T00:19:18.638Z,7.47
2018-03-10T00:19:22.769Z,7.48
2018-03-10T00:19:26.890Z,7.47
2018-03-10T00:19:30.786Z,7.48
2018-03-10T00:19:34.680Z,7.47
2018-03-10T00:19:38.582Z,7.48
2018-03-10T00:19:42.696Z,7.47
2018-03-10T00:19:46.697Z,7.48
2018-03-10T00:19:50.600Z,7.47
2018-03-10T00:19:54.717Z,7.48
2018-03-10T00:19:58.831Z,7.47
2018-03-10T00:20:03.155Z,7.47
2018-03-10T00:20:07.276Z,7.47
2018-03-10T00:20:11.509Z,7.48
2018-03-10T00:20:15.514Z,7.47
2018-03-10T00:20:19.850Z,7.49
2018-03-10T00:20:23.860Z,7.47
2018-03-10T00:20:27.974Z,7.47
2018-03-10T00:20:32.085Z,7.48
2018-03-10T00:20:36.411Z,7.48
2018-03-10T00:20:40.421Z,7.47
2018-03-10T00:20:44.531Z,7.48
2018-03-10T00:20:48.753Z,7.48
2018-03-10T00:20:52.875Z,7.48
2018-03-10T00:20:56.779Z,7.48
2018-03-10T00:21:01.013Z,7.48
2018-03-10T00:21:05.141Z,7.47
2018-03-10T00:21:09.372Z,7.47
2018-03-10T00:21:13.593Z,7.47
2018-03-10T00:21:17.826Z,7.47
2018-03-10T00:21:22.044Z,7.48
2018-03-10T00:21:26.372Z,7.48
2018-03-10T00:21:30.378Z,7.48
2018-03-10T00:21:34.392Z,7.48
2018-03-10T00:21:38.730Z,7.48
2018-03-10T00:21:42.737Z,7.48
2018-03-10T00:21:46.744Z,7.48
2018-03-10T00:21:50.750Z,7.48
2018-03-10T00:21:54.863Z,7.48
2018-03-10T00:21:58.978Z,7.48
2018-03-10T00:22:03.394Z,7.48
2018-03-10T00:22:07.510Z,7.48
2018-03-10T00:22:11.410Z,7.48
2018-03-10T00:22:15.524Z,7.48
2018-03-10T00:22:19.428Z,7.49
2018-03-10T00:22:23.652Z,7.48
2018-03-10T00:22:27.978Z,7.49
2018-03-10T00:22:31.879Z,7.48
2018-03-10T00:22:36.105Z,7.49
2018-03-10T00:22:40.215Z,7.49
2018-03-10T00:22:44.454Z,7.49
2018-03-10T00:22:48.571Z,7.49
2018-03-10T00:22:52.807Z,7.5
2018-03-10T00:22:56.941Z,7.5
2018-03-10T00:23:01.048Z,7.5
2018-03-10T00:23:05.264Z,7.49
2018-03-10T00:23:09.603Z,7.5
2018-03-10T00:23:13.827Z,7.5
2018-03-10T00:23:18.059Z,7.5
2018-03-10T00:23:22.067Z,7.5
2018-03-10T00:23:26.401Z,7.5
2018-03-10T00:23:30.410Z,7.5
2018-03-10T00:23:34.746Z,7.51
2018-03-10T00:23:39.079Z,7.51
2018-03-10T00:23:43.233Z,7.51
2018-03-10T00:23:47.237Z,7.51
2018-03-10T00:23:51.348Z,7.52
2018-03-10T00:23:55.576Z,7.52
2018-03-10T00:23:59.903Z,7.52
2018-03-10T00:24:04.029Z,7.52
2018-03-10T00:24:08.099Z,7.52
2018-03-10T00:24:12.061Z,7.53
2018-03-10T00:24:16.067Z,7.52
2018-03-10T00:24:20.178Z,7.52
2018-03-10T00:24:24.297Z,7.52
2018-03-10T00:24:28.142Z,7.53
2018-03-10T00:24:32.259Z,7.53
2018-03-10T00:24:36.396Z,7.52
2018-03-10T00:24:40.637Z,7.53
2018-03-10T00:24:44.874Z,7.53
2018-03-10T00:24:48.994Z,7.53
2018-03-10T00:24:52.904Z,7.53
2018-03-10T00:24:57.127Z,7.53
2018-03-10T00:25:01.135Z,7.54
2018-03-10T00:25:05.469Z,7.54
2018-03-10T00:25:09.490Z,7.54
2018-03-10T00:25:13.495Z,7.54
2018-03-10T00:25:17.618Z,7.54
2018-03-10T00:25:21.843Z,7.54
2018-03-10T00:25:26.411Z,7.54
2018-03-10T00:25:30.525Z,7.54
2018-03-10T00:25:34.748Z,7.55
2018-03-10T00:25:38.860Z,7.55
2018-03-10T00:25:42.861Z,7.55
2018-03-10T00:25:46.981Z,7.55
2018-03-10T00:25:51.203Z,7.55
2018-03-10T00:25:55.319Z,7.55
2018-03-10T00:25:59.323Z,7.55
2018-03-10T00:26:03.510Z,7.55
2018-03-10T00:26:07.382Z,7.55
2018-03-10T00:26:11.505Z,7.55
2018-03-10T00:26:15.619Z,7.56
2018-03-10T00:26:19.854Z,7.56
2018-03-10T00:26:23.963Z,7.56
2018-03-10T00:26:28.187Z,7.56
2018-03-10T00:26:32.516Z,7.56
2018-03-10T00:26:36.637Z,7.56
2018-03-10T00:26:40.853Z,7.56
2018-03-10T00:26:44.861Z,7.57
2018-03-10T00:26:48.971Z,7.57
2018-03-10T00:26:53.304Z,7.57
2018-03-10T00:26:57.418Z,7.57
2018-03-10T00:27:01.534Z,7.56
2018-03-10T00:27:05.861Z,7.57
2018-03-10T00:27:10.087Z,7.58
2018-03-10T00:27:14.103Z,7.58
2018-03-10T00:27:18.333Z,7.57
2018-03-10T00:27:22.672Z,7.58
2018-03-10T00:27:27.001Z,7.57
2018-03-10T00:27:31.227Z,7.58
2018-03-10T00:27:35.453Z,7.58
2018-03-10T00:27:39.674Z,7.57
2018-03-10T00:27:43.680Z,7.59
2018-03-10T00:27:47.694Z,7.58
2018-03-10T00:27:51.927Z,7.58
2018-03-10T00:27:55.720Z,7.58
2018-03-10T00:27:59.943Z,7.58
2018-03-10T00:28:04.172Z,7.58
2018-03-10T00:28:08.399Z,7.58
2018-03-10T00:28:12.411Z,7.58
2018-03-10T00:28:16.206Z,7.59
2018-03-10T00:28:20.319Z,7.58
2018-03-10T00:28:24.640Z,7.58
2018-03-10T00:28:28.648Z,7.58
2018-03-10T00:28:32.654Z,7.58
2018-03-10T00:28:36.875Z,7.59
2018-03-10T00:28:40.900Z,7.58
2018-03-10T00:28:44.907Z,7.59
2018-03-10T00:28:49.062Z,7.59
2018-03-10T00:28:53.064Z,7.59
2018-03-10T00:28:57.180Z,7.59
2018-03-10T00:29:01.318Z,7.6
2018-03-10T00:29:05.700Z,7.6
2018-03-10T00:29:09.926Z,7.6
2018-03-10T00:29:14.035Z,7.59
2018-03-10T00:29:18.152Z,7.6
2018-03-10T00:29:22.272Z,7.6
2018-03-10T00:29:26.297Z,7.6
2018-03-10T00:29:30.306Z,7.61
2018-03-10T00:29:34.528Z,7.61
2018-03-10T00:29:38.648Z,7.6
2018-03-10T00:29:42.874Z,7.61
2018-03-10T00:29:46.667Z,7.61
2018-03-10T00:29:50.674Z,7.6
2018-03-10T00:29:55.017Z,7.61
2018-03-10T00:29:59.021Z,7.6
2018-03-10T00:30:03.454Z,7.61
2018-03-10T00:30:07.463Z,7.61
2018-03-10T00:30:11.476Z,7.61
2018-03-10T00:30:15.380Z,7.61
2018-03-10T00:30:19.382Z,7.61
2018-03-10T00:30:23.493Z,7.61
2018-03-10T00:30:27.498Z,7.62
2018-03-10T00:30:31.508Z,7.61
2018-03-10T00:30:35.730Z,7.63
2018-03-10T00:30:39.732Z,7.62
2018-03-10T00:30:43.948Z,7.62
2018-03-10T00:30:48.171Z,7.62
2018-03-10T00:30:52.390Z,7.62
2018-03-10T00:30:56.766Z,7.62
2018-03-10T00:31:00.989Z,7.62
2018-03-10T00:31:05.575Z,7.63
2018-03-10T00:31:09.694Z,7.62
2018-03-10T00:31:13.915Z,7.63
2018-03-10T00:31:17.829Z,7.63
2018-03-10T00:31:22.158Z,7.62
2018-03-10T00:31:26.384Z,7.63
2018-03-10T00:31:30.408Z,7.63
2018-03-10T00:31:34.415Z,7.63
2018-03-10T00:31:38.636Z,7.62
2018-03-10T00:31:42.643Z,7.64
2018-03-10T00:31:46.547Z,7.62
2018-03-10T00:31:50.660Z,7.63
2018-03-10T00:31:54.869Z,7.63
2018-03-10T00:31:58.959Z,7.63
2018-03-10T00:32:03.654Z,7.63
2018-03-10T00:32:07.766Z,7.64
2018-03-10T00:32:11.989Z,7.64
2018-03-10T00:32:16.111Z,7.64
2018-03-10T00:32:20.339Z,7.64
2018-03-10T00:32:24.663Z,7.64
2018-03-10T00:32:28.996Z,7.64
2018-03-10T00:32:33.000Z,7.65
2018-03-10T00:32:37.224Z,7.65
2018-03-10T00:32:41.448Z,7.64
2018-03-10T00:32:45.448Z,7.65
2018-03-10T00:32:49.458Z,7.65
2018-03-10T00:32:53.781Z,7.65
2018-03-10T00:32:57.894Z,7.65
2018-03-10T00:33:02.009Z,7.65
2018-03-10T00:33:06.195Z,7.66
2018-03-10T00:33:10.309Z,7.65
2018-03-10T00:33:14.526Z,7.65
2018-03-10T00:33:18.426Z,7.66
2018-03-10T00:33:22.655Z,7.66
2018-03-10T00:33:26.880Z,7.66
2018-03-10T00:33:30.995Z,7.66
2018-03-10T00:33:35.110Z,7.67
2018-03-10T00:33:39.438Z,7.66
2018-03-10T00:33:43.549Z,7.67
2018-03-10T00:33:47.673Z,7.67
2018-03-10T00:33:51.790Z,7.67
2018-03-10T00:33:56.012Z,7.67
2018-03-10T00:34:00.023Z,7.67
2018-03-10T00:34:04.247Z,7.68
2018-03-10T00:34:08.509Z,7.68
2018-03-10T00:34:12.630Z,7.68
2018-03-10T00:34:16.863Z,7.68
2018-03-10T00:34:20.994Z,7.68
2018-03-10T00:34:25.224Z,7.68
2018-03-10T00:34:29.230Z,7.68
2018-03-10T00:34:33.347Z,7.69
2018-03-10T00:34:37.350Z,7.69
2018-03-10T00:34:41.466Z,7.69
2018-03-10T00:34:45.584Z,7.69
2018-03-10T00:34:49.696Z,7.68
2018-03-10T00:34:53.700Z,7.69
2018-03-10T00:34:57.827Z,7.69
2018-03-10T00:35:01.940Z,7.7
2018-03-10T00:35:06.165Z,7.7
2018-03-10T00:35:10.274Z,7.7
2018-03-10T00:35:14.291Z,7.7
2018-03-10T00:35:18.525Z,7.69
2018-03-10T00:35:22.644Z,7.7
2018-03-10T00:35:26.654Z,7.71
2018-03-10T00:35:30.997Z,7.7
2018-03-10T00:35:35.008Z,7.7
2018-03-10T00:35:39.545Z,7.71
2018-03-10T00:35:43.555Z,7.7
2018-03-10T00:35:47.881Z,7.71
2018-03-10T00:35:51.888Z,7.7
2018-03-10T00:35:56.000Z,7.72
2018-03-10T00:36:00.019Z,7.72
2018-03-10T00:36:04.357Z,7.72
2018-03-10T00:36:08.468Z,7.72
2018-03-10T00:36:12.794Z,7.71
2018-03-10T00:36:17.132Z,7.72
2018-03-10T00:36:21.152Z,7.73
2018-03-10T00:36:25.155Z,7.73
2018-03-10T00:36:29.378Z,7.73
2018-03-10T00:36:33.703Z,7.73
2018-03-10T00:36:37.928Z,7.73
2018-03-10T00:36:42.462Z,7.73
2018-03-10T00:36:46.798Z,7.73
2018-03-10T00:36:50.913Z,7.74
2018-03-10T00:36:55.029Z,7.73
2018-03-10T00:36:59.040Z,7.74
2018-03-10T00:37:03.199Z,7.73
2018-03-10T00:37:07.477Z,7.74
2018-03-10T00:37:11.700Z,7.74
2018-03-10T00:37:16.032Z,7.75
2018-03-10T00:37:20.284Z,7.74
2018-03-10T00:37:24.614Z,7.75
2018-03-10T00:37:28.721Z,7.75
2018-03-10T00:37:32.513Z,7.75
2018-03-10T00:37:36.647Z,7.75
2018-03-10T00:37:40.765Z,7.75
2018-03-10T00:37:44.882Z,7.76
2018-03-10T00:37:49.242Z,7.75
2018-03-10T00:37:53.470Z,7.75
2018-03-10T00:37:57.369Z,7.76
2018-03-10T00:38:01.057Z,7.75
2018-03-10T00:38:05.334Z,7.77
2018-03-10T00:38:09.448Z,7.77
2018-03-10T00:38:13.668Z,7.76
2018-03-10T00:38:17.883Z,7.76
2018-03-10T00:38:22.121Z,7.76
2018-03-10T00:38:26.345Z,7.77
2018-03-10T00:38:30.571Z,7.76
2018-03-10T00:38:34.906Z,7.76
2018-03-10T00:38:39.022Z,7.77
2018-03-10T00:38:43.141Z,7.77
2018-03-10T00:38:47.042Z,7.77
2018-03-10T00:38:51.272Z,7.78
2018-03-10T00:38:55.491Z,7.77
2018-03-10T00:38:59.727Z,7.77
2018-03-10T00:39:04.193Z,7.78
2018-03-10T00:39:08.317Z,7.78
2018-03-10T00:39:12.430Z,7.78
2018-03-10T00:39:16.652Z,7.78
2018-03-10T00:39:20.874Z,7.79
2018-03-10T00:39:24.990Z,7.78
2018-03-10T00:39:29.215Z,7.78
2018-03-10T00:39:33.220Z,7.78
2018-03-10T00:39:37.446Z,7.78
2018-03-10T00:39:41.352Z,7.78
2018-03-10T00:39:45.465Z,7.79
2018-03-10T00:39:49.576Z,7.78
2018-03-10T00:39:53.736Z,7.79
2018-03-10T00:39:57.851Z,7.79
2018-03-10T00:40:02.077Z,7.79
2018-03-10T00:40:06.323Z,7.78
2018-03-10T00:40:10.559Z,7.8
2018-03-10T00:40:14.894Z,7.8
2018-03-10T00:40:19.112Z,7.8
2018-03-10T00:40:23.249Z,7.8
2018-03-10T00:40:27.470Z,7.8
2018-03-10T00:40:31.491Z,7.8
2018-03-10T00:40:35.601Z,7.8
2018-03-10T00:40:39.788Z,7.8
2018-03-10T00:40:44.132Z,7.79
2018-03-10T00:40:48.531Z,7.8
2018-03-10T00:40:52.859Z,7.8
2018-03-10T00:40:56.980Z,7.8
2018-03-10T00:41:01.092Z,7.81
2018-03-10T00:41:05.348Z,7.8
2018-03-10T00:41:09.360Z,7.8
2018-03-10T00:41:13.494Z,7.8
2018-03-10T00:41:17.827Z,7.8
2018-03-10T00:41:22.170Z,7.81
2018-03-10T00:41:26.506Z,7.8
2018-03-10T00:41:30.620Z,7.81
2018-03-10T00:41:34.845Z,7.81
2018-03-10T00:41:39.073Z,7.81
2018-03-10T00:41:43.193Z,7.81
2018-03-10T00:41:47.207Z,7.81
2018-03-10T00:41:51.097Z,7.81
2018-03-10T00:41:55.100Z,7.81
2018-03-10T00:41:59.212Z,7.81
2018-03-10T00:42:03.386Z,7.81
2018-03-10T00:42:07.503Z,7.81
2018-03-10T00:42:11.730Z,7.81
2018-03-10T00:42:15.942Z,7.81
2018-03-10T00:42:20.273Z,7.81
2018-03-10T00:42:24.279Z,7.81
2018-03-10T00:42:28.506Z,7.81
2018-03-10T00:42:32.513Z,7.82
2018-03-10T00:42:36.763Z,7.81
2018-03-10T00:42:40.880Z,7.82
2018-03-10T00:42:45.101Z,7.81
2018-03-10T00:42:49.121Z,7.81
2018-03-10T00:42:53.452Z,7.81
2018-03-10T00:42:57.570Z,7.81
2018-03-10T00:43:01.795Z,7.8
2018-03-10T00:43:06.193Z,7.81
2018-03-10T00:43:10.417Z,7.82
2018-03-10T00:43:14.537Z,7.81
2018-03-10T00:43:18.753Z,7.81
2018-03-10T00:43:22.864Z,7.82
2018-03-10T00:43:27.079Z,7.81
2018-03-10T00:43:31.199Z,7.81
2018-03-10T00:43:35.313Z,7.82
2018-03-10T00:43:39.323Z,7.82
2018-03-10T00:43:43.448Z,7.81
2018-03-10T00:43:47.557Z,7.82
2018-03-10T00:43:51.781Z,7.82
2018-03-10T00:43:56.003Z,7.81
2018-03-10T00:44:00.338Z,7.82
2018-03-10T00:44:04.346Z,7.81
2018-03-10T00:44:08.455Z,7.82
2018-03-10T00:44:12.355Z,7.81
2018-03-10T00:44:16.574Z,7.82
2018-03-10T00:44:20.685Z,7.82
2018-03-10T00:44:25.021Z,7.81
2018-03-10T00:44:29.243Z,7.82
2018-03-10T00:44:33.145Z,7.82
2018-03-10T00:44:37.475Z,7.82
2018-03-10T00:44:41.803Z,7.81
2018-03-10T00:44:45.809Z,7.82
2018-03-10T00:44:49.615Z,7.81
2018-03-10T00:44:53.845Z,7.81
2018-03-10T00:44:57.958Z,7.82
2018-03-10T00:45:02.213Z,7.82
2018-03-10T00:45:06.551Z,7.82
2018-03-10T00:45:10.869Z,7.81
2018-03-10T00:45:15.097Z,7.82
2018-03-10T00:45:19.324Z,7.81
2018-03-10T00:45:23.544Z,7.81
2018-03-10T00:45:27.873Z,7.81
2018-03-10T00:45:31.981Z,7.81
2018-03-10T00:45:36.101Z,7.82
2018-03-10T00:45:40.215Z,7.82
2018-03-10T00:45:44.436Z,7.82
2018-03-10T00:45:48.547Z,7.82
2018-03-10T00:45:52.767Z,7.82
2018-03-10T00:45:56.881Z,7.81
2018-03-10T00:46:01.001Z,7.82
2018-03-10T00:46:05.432Z,7.81
2018-03-10T00:46:09.773Z,7.81
2018-03-10T00:46:13.776Z,7.81
2018-03-10T00:46:18.107Z,7.82
2018-03-10T00:46:22.467Z,7.82
2018-03-10T00:46:26.792Z,7.82
2018-03-10T00:46:30.901Z,7.81
2018-03-10T00:46:35.129Z,7.81
2018-03-10T00:46:39.251Z,7.81
2018-03-10T00:46:43.466Z,7.81
2018-03-10T00:46:47.694Z,7.81
2018-03-10T00:46:51.590Z,7.81
2018-03-10T00:46:55.707Z,7.81
2018-03-10T00:46:59.932Z,7.81
2018-03-10T00:47:04.200Z,7.81
2018-03-10T00:47:08.311Z,7.82
2018-03-10T00:47:12.532Z,7.82
2018-03-10T00:47:16.545Z,7.83
2018-03-10T00:47:20.661Z,7.82
2018-03-10T00:47:24.996Z,7.82
2018-03-10T00:47:29.107Z,7.81
2018-03-10T00:47:33.114Z,7.82
2018-03-10T00:47:37.333Z,7.82
2018-03-10T00:47:41.676Z,7.82
2018-03-10T00:47:45.800Z,7.82
2018-03-10T00:47:50.030Z,7.81
2018-03-10T00:47:54.355Z,7.82
2018-03-10T00:47:58.586Z,7.82
2018-03-10T00:48:02.925Z,7.81
2018-03-10T00:48:07.263Z,7.82
2018-03-10T00:48:11.481Z,7.83
2018-03-10T00:48:15.382Z,7.81
2018-03-10T00:48:19.490Z,7.82
2018-03-10T00:48:23.823Z,7.82
2018-03-10T00:48:27.940Z,7.82
2018-03-10T00:48:32.054Z,7.81
2018-03-10T00:48:36.390Z,7.82
2018-03-10T00:48:40.188Z,7.82
2018-03-10T00:48:44.307Z,7.82
2018-03-10T00:48:48.314Z,7.82
2018-03-10T00:48:52.426Z,7.82
2018-03-10T00:48:56.650Z,7.82
2018-03-10T00:49:00.979Z,7.82
2018-03-10T00:49:05.190Z,7.82
2018-03-10T00:49:09.416Z,7.83
2018-03-10T00:49:13.753Z,7.82
2018-03-10T00:49:17.764Z,7.82
2018-03-10T00:49:22.088Z,7.83
2018-03-10T00:49:26.211Z,7.82
2018-03-10T00:49:30.107Z,7.83
2018-03-10T00:49:34.335Z,7.82
2018-03-10T00:49:38.447Z,7.83
2018-03-10T00:49:42.559Z,7.83
2018-03-10T00:49:46.901Z,7.83
2018-03-10T00:49:51.228Z,7.82
2018-03-10T00:49:55.340Z,7.83
2018-03-10T00:49:59.452Z,7.83
2018-03-10T00:50:03.351Z,7.82
2018-03-10T00:50:07.493Z,7.82
2018-03-10T00:50:11.396Z,7.83
2018-03-10T00:50:15.730Z,7.83
2018-03-10T00:50:19.733Z,7.82
2018-03-10T00:50:23.956Z,7.83
2018-03-10T00:50:28.191Z,7.83
2018-03-10T00:50:32.320Z,7.82
2018-03-10T00:50:36.647Z,7.83
2018-03-10T00:50:40.972Z,7.83
2018-03-10T00:50:45.297Z,7.83
2018-03-10T00:50:49.530Z,7.83
2018-03-10T00:50:53.860Z,7.83
2018-03-10T00:50:58.079Z,7.83
2018-03-10T00:51:02.088Z,7.83
2018-03-10T00:51:06.102Z,7.83
2018-03-10T00:51:10.219Z,7.83
2018-03-10T00:51:14.340Z,7.83
2018-03-10T00:51:18.471Z,7.84
2018-03-10T00:51:22.594Z,7.83
2018-03-10T00:51:26.923Z,7.84
2018-03-10T00:51:30.929Z,7.84
2018-03-10T00:51:35.269Z,7.84
2018-03-10T00:51:39.491Z,7.84
2018-03-10T00:51:43.500Z,7.83
2018-03-10T00:51:47.510Z,7.83
2018-03-10T00:51:51.618Z,7.83
2018-03-10T00:51:55.624Z,7.84
2018-03-10T00:51:59.734Z,7.84
2018-03-10T00:52:04.077Z,7.84
2018-03-10T00:52:08.303Z,7.84
2018-03-10T00:52:12.557Z,7.84
2018-03-10T00:52:16.675Z,7.83
2018-03-10T00:52:20.796Z,7.84
2018-03-10T00:52:24.952Z,7.84
2018-03-10T00:52:29.284Z,7.84
2018-03-10T00:52:33.619Z,7.84
2018-03-10T00:52:37.948Z,7.84
2018-03-10T00:52:42.274Z,7.84
2018-03-10T00:52:46.290Z,7.84
2018-03-10T00:52:50.619Z,7.84
2018-03-10T00:52:54.955Z,7.84
2018-03-10T00:52:59.069Z,7.84
2018-03-10T00:53:03.424Z,7.84
2018-03-10T00:53:07.788Z,7.84
2018-03-10T00:53:12.018Z,7.85
2018-03-10T00:53:15.912Z,7.84
2018-03-10T00:53:20.026Z,7.84
2018-03-10T00:53:24.248Z,7.84
2018-03-10T00:53:28.253Z,7.84
2018-03-10T00:53:32.369Z,7.84
2018-03-10T00:53:36.487Z,7.85
2018-03-10T00:53:40.487Z,7.85
2018-03-10T00:53:44.614Z,7.84
2018-03-10T00:53:48.955Z,7.85
2018-03-10T00:53:52.971Z,7.85
2018-03-10T00:53:57.301Z,7.85
2018-03-10T00:54:01.527Z,7.85
2018-03-10T00:54:05.644Z,7.85
2018-03-10T00:54:09.651Z,7.85
2018-03-10T00:54:13.658Z,7.84
2018-03-10T00:54:17.993Z,7.85
2018-03-10T00:54:22.218Z,7.85
2018-03-10T00:54:26.329Z,7.85
2018-03-10T00:54:30.556Z,7.85
2018-03-10T00:54:34.563Z,7.85
2018-03-10T00:54:38.782Z,7.85
2018-03-10T00:54:42.682Z,7.85
2018-03-10T00:54:46.911Z,7.86
2018-03-10T00:54:51.022Z,7.85
2018-03-10T00:54:55.032Z,7.85
2018-03-10T00:54:59.044Z,7.85
2018-03-10T00:55:03.222Z,7.86
2018-03-10T00:55:07.124Z,7.86
2018-03-10T00:55:11.460Z,7.85
2018-03-10T00:55:15.468Z,7.86
2018-03-10T00:55:19.475Z,7.86
2018-03-10T00:55:23.371Z,7.85
2018-03-10T00:55:27.380Z,7.86
2018-03-10T00:55:31.284Z,7.86